sensor_id;sensor_type;location;lat;lon;timestamp;P1;durP1;ratioP1;P2;durP2;ratioP2
16832;SDS011;8533;48.426;10.868;2024-03-23T00:55:03;4.00;;;3.17;;
16832;SDS011;8533;48.426;10.868;2024-03-23T00:57:28;7.27;;;3.40;;
16832;SDS011;8533;48.426;10.868;2024-03-23T00:59:53;4.17;;;2.80;;
16832;SDS011;8533;48.426;10.868;2024-03-23T01:02:19;4.80;;;3.00;;
16832;SDS011;8533;48.426;10.868;2024-03-23T01:04:44;5.03;;;2.60;;
16832;SDS011;8533;48.426;10.868;2024-03-23T01:07:09;5.20;;;2.83;;
16832;SDS011;8533;48.426;10.868;2024-03-23T01:09:34;4.17;;;3.43;;
16832;SDS011;8533;48.426;10.868;2024-03-23T01:12:00;4.40;;;3.10;;
16832;SDS011;8533;48.426;10.868;2024-03-23T01:14:26;4.57;;;2.63;;
16832;SDS011;8533;48.426;10.868;2024-03-23T01:16:52;6.00;;;2.80;;
16832;SDS011;8533;48.426;10.868;2024-03-23T01:19:17;6.50;;;2.97;;
16832;SDS011;8533;48.426;10.868;2024-03-23T01:21:42;5.60;;;3.13;;
16832;SDS011;8533;48.426;10.868;2024-03-23T01:24:08;3.50;;;2.90;;
16832;SDS011;8533;48.426;10.868;2024-03-23T01:26:35;4.07;;;2.80;;
16832;SDS011;8533;48.426;10.868;2024-03-23T01:29:02;4.93;;;2.67;;
16832;SDS011;8533;48.426;10.868;2024-03-23T01:31:27;3.83;;;2.80;;
16832;SDS011;8533;48.426;10.868;2024-03-23T01:33:52;4.80;;;2.70;;
16832;SDS011;8533;48.426;10.868;2024-03-23T01:36:18;6.90;;;2.93;;
16832;SDS011;8533;48.426;10.868;2024-03-23T01:38:43;7.23;;;3.20;;
16832;SDS011;8533;48.426;10.868;2024-03-23T01:41:08;2.97;;;2.57;;
16832;SDS011;8533;48.426;10.868;2024-03-23T01:43:34;5.80;;;2.50;;
16832;SDS011;8533;48.426;10.868;2024-03-23T01:45:59;3.77;;;3.00;;
16832;SDS011;8533;48.426;10.868;2024-03-23T01:48:24;4.33;;;3.07;;
16832;SDS011;8533;48.426;10.868;2024-03-23T01:50:50;3.70;;;2.80;;
16832;SDS011;8533;48.426;10.868;2024-03-23T01:53:15;3.80;;;2.50;;
16832;SDS011;8533;48.426;10.868;2024-03-23T01:55:46;3.73;;;2.50;;
16832;SDS011;8533;48.426;10.868;2024-03-23T01:58:12;4.23;;;2.50;;
16832;SDS011;8533;48.426;10.868;2024-03-23T02:00:37;2.63;;;2.30;;
16832;SDS011;8533;48.426;10.868;2024-03-23T02:03:03;6.00;;;2.83;;
16832;SDS011;8533;48.426;10.868;2024-03-23T02:05:47;4.10;;;2.60;;
16832;SDS011;8533;48.426;10.868;2024-03-23T02:08:12;3.77;;;2.60;;
16832;SDS011;8533;48.426;10.868;2024-03-23T02:10:37;5.13;;;2.70;;
16832;SDS011;8533;48.426;10.868;2024-03-23T02:13:03;2.90;;;2.60;;
16832;SDS011;8533;48.426;10.868;2024-03-23T02:15:28;3.33;;;2.53;;
16832;SDS011;8533;48.426;10.868;2024-03-23T02:17:53;2.73;;;2.50;;
16832;SDS011;8533;48.426;10.868;2024-03-23T02:20:19;3.03;;;2.53;;
16832;SDS011;8533;48.426;10.868;2024-03-23T02:22:44;3.33;;;2.60;;
16832;SDS011;8533;48.426;10.868;2024-03-23T02:25:09;4.37;;;2.83;;
16832;SDS011;8533;48.426;10.868;2024-03-23T02:27:35;4.27;;;2.70;;
16832;SDS011;8533;48.426;10.868;2024-03-23T02:30:01;3.63;;;2.50;;
16832;SDS011;8533;48.426;10.868;2024-03-23T02:32:26;3.37;;;2.90;;
16832;SDS011;8533;48.426;10.868;2024-03-23T02:34:51;4.70;;;2.80;;
16832;SDS011;8533;48.426;10.868;2024-03-23T02:37:17;3.97;;;2.97;;
16832;SDS011;8533;48.426;10.868;2024-03-23T02:39:42;5.00;;;2.70;;
16832;SDS011;8533;48.426;10.868;2024-03-23T02:42:07;6.20;;;2.83;;
16832;SDS011;8533;48.426;10.868;2024-03-23T02:44:32;2.87;;;2.60;;
16832;SDS011;8533;48.426;10.868;2024-03-23T02:46:58;5.90;;;2.90;;
16832;SDS011;8533;48.426;10.868;2024-03-23T02:49:23;3.80;;;2.70;;
16832;SDS011;8533;48.426;10.868;2024-03-23T02:51:48;3.47;;;2.63;;
16832;SDS011;8533;48.426;10.868;2024-03-23T02:54:14;4.23;;;2.57;;
16832;SDS011;8533;48.426;10.868;2024-03-23T02:56:39;3.20;;;2.60;;
16832;SDS011;8533;48.426;10.868;2024-03-23T02:59:04;2.97;;;2.67;;
16832;SDS011;8533;48.426;10.868;2024-03-23T03:01:30;4.00;;;2.87;;
16832;SDS011;8533;48.426;10.868;2024-03-23T03:03:55;3.40;;;2.70;;
16832;SDS011;8533;48.426;10.868;2024-03-23T03:06:24;3.80;;;2.90;;
16832;SDS011;8533;48.426;10.868;2024-03-23T03:08:50;6.53;;;3.30;;
16832;SDS011;8533;48.426;10.868;2024-03-23T03:11:15;4.23;;;2.90;;
16832;SDS011;8533;48.426;10.868;2024-03-23T03:13:40;4.00;;;2.90;;
16832;SDS011;8533;48.426;10.868;2024-03-23T03:16:08;5.60;;;2.90;;
16832;SDS011;8533;48.426;10.868;2024-03-23T03:18:36;4.10;;;2.70;;
16832;SDS011;8533;48.426;10.868;2024-03-23T03:21:02;4.63;;;2.80;;
16832;SDS011;8533;48.426;10.868;2024-03-23T03:23:30;4.00;;;2.80;;
16832;SDS011;8533;48.426;10.868;2024-03-23T03:25:55;3.27;;;2.57;;
16832;SDS011;8533;48.426;10.868;2024-03-23T03:28:21;3.53;;;2.97;;
16832;SDS011;8533;48.426;10.868;2024-03-23T03:30:46;3.20;;;2.80;;
16832;SDS011;8533;48.426;10.868;2024-03-23T03:33:11;3.37;;;2.70;;
16832;SDS011;8533;48.426;10.868;2024-03-23T03:35:36;5.17;;;3.13;;
16832;SDS011;8533;48.426;10.868;2024-03-23T03:38:02;3.93;;;2.87;;
16832;SDS011;8533;48.426;10.868;2024-03-23T03:40:29;4.23;;;2.90;;
16832;SDS011;8533;48.426;10.868;2024-03-23T03:42:55;5.77;;;2.90;;
16832;SDS011;8533;48.426;10.868;2024-03-23T03:45:20;4.20;;;3.07;;
16832;SDS011;8533;48.426;10.868;2024-03-23T03:47:45;3.07;;;2.73;;
16832;SDS011;8533;48.426;10.868;2024-03-23T03:50:11;4.67;;;3.57;;
16832;SDS011;8533;48.426;10.868;2024-03-23T03:52:36;10.20;;;3.17;;
16832;SDS011;8533;48.426;10.868;2024-03-23T03:55:01;4.43;;;2.60;;
16832;SDS011;8533;48.426;10.868;2024-03-23T03:57:28;3.10;;;2.40;;
16832;SDS011;8533;48.426;10.868;2024-03-23T03:59:53;2.73;;;2.50;;
16832;SDS011;8533;48.426;10.868;2024-03-23T04:02:19;4.23;;;2.40;;
16832;SDS011;8533;48.426;10.868;2024-03-23T04:04:44;5.03;;;2.73;;
16832;SDS011;8533;48.426;10.868;2024-03-23T04:07:09;5.47;;;2.57;;
16832;SDS011;8533;48.426;10.868;2024-03-23T04:09:35;3.17;;;2.53;;
16832;SDS011;8533;48.426;10.868;2024-03-23T04:12:00;3.83;;;2.43;;
16832;SDS011;8533;48.426;10.868;2024-03-23T04:14:26;4.30;;;2.43;;
16832;SDS011;8533;48.426;10.868;2024-03-23T04:16:51;7.07;;;2.50;;
16832;SDS011;8533;48.426;10.868;2024-03-23T04:19:16;2.63;;;2.33;;
16832;SDS011;8533;48.426;10.868;2024-03-23T04:21:41;3.10;;;2.33;;
16832;SDS011;8533;48.426;10.868;2024-03-23T04:24:07;2.80;;;2.50;;
16832;SDS011;8533;48.426;10.868;2024-03-23T04:26:50;3.40;;;2.40;;
16832;SDS011;8533;48.426;10.868;2024-03-23T04:29:15;2.90;;;2.50;;
16832;SDS011;8533;48.426;10.868;2024-03-23T04:31:41;7.00;;;2.73;;
16832;SDS011;8533;48.426;10.868;2024-03-23T04:34:06;4.30;;;2.60;;
16832;SDS011;8533;48.426;10.868;2024-03-23T04:36:31;5.33;;;2.30;;
16832;SDS011;8533;48.426;10.868;2024-03-23T04:38:58;4.60;;;2.37;;
16832;SDS011;8533;48.426;10.868;2024-03-23T04:41:24;2.93;;;2.17;;
16832;SDS011;8533;48.426;10.868;2024-03-23T04:43:50;4.93;;;2.53;;
16832;SDS011;8533;48.426;10.868;2024-03-23T04:46:16;2.40;;;2.10;;
16832;SDS011;8533;48.426;10.868;2024-03-23T04:48:41;3.90;;;2.43;;
16832;SDS011;8533;48.426;10.868;2024-03-23T04:51:09;3.90;;;2.40;;
16832;SDS011;8533;48.426;10.868;2024-03-23T04:53:34;4.30;;;2.33;;
16832;SDS011;8533;48.426;10.868;2024-03-23T04:55:59;2.33;;;1.90;;
16832;SDS011;8533;48.426;10.868;2024-03-23T04:58:25;3.13;;;2.10;;
16832;SDS011;8533;48.426;10.868;2024-03-23T05:00:56;5.47;;;2.43;;
16832;SDS011;8533;48.426;10.868;2024-03-23T05:03:22;5.97;;;2.30;;
16832;SDS011;8533;48.426;10.868;2024-03-23T05:05:48;5.33;;;2.13;;
16832;SDS011;8533;48.426;10.868;2024-03-23T05:08:14;4.60;;;2.47;;
16832;SDS011;8533;48.426;10.868;2024-03-23T05:10:41;3.07;;;2.43;;
16832;SDS011;8533;48.426;10.868;2024-03-23T05:13:07;5.30;;;2.60;;
16832;SDS011;8533;48.426;10.868;2024-03-23T05:15:32;4.43;;;2.10;;
16832;SDS011;8533;48.426;10.868;2024-03-23T05:17:57;2.37;;;2.13;;
16832;SDS011;8533;48.426;10.868;2024-03-23T05:20:23;4.93;;;2.73;;
16832;SDS011;8533;48.426;10.868;2024-03-23T05:22:49;3.67;;;2.40;;
16832;SDS011;8533;48.426;10.868;2024-03-23T05:25:14;5.10;;;2.30;;
16832;SDS011;8533;48.426;10.868;2024-03-23T05:27:41;3.23;;;2.47;;
16832;SDS011;8533;48.426;10.868;2024-03-23T05:30:06;4.00;;;2.33;;
16832;SDS011;8533;48.426;10.868;2024-03-23T05:32:32;2.97;;;2.53;;
16832;SDS011;8533;48.426;10.868;2024-03-23T05:34:57;4.50;;;2.13;;
16832;SDS011;8533;48.426;10.868;2024-03-23T05:37:23;3.43;;;2.63;;
16832;SDS011;8533;48.426;10.868;2024-03-23T05:39:48;4.17;;;2.33;;
16832;SDS011;8533;48.426;10.868;2024-03-23T05:42:19;4.07;;;2.47;;
16832;SDS011;8533;48.426;10.868;2024-03-23T05:44:45;3.80;;;2.60;;
16832;SDS011;8533;48.426;10.868;2024-03-23T05:47:10;3.33;;;2.50;;
16832;SDS011;8533;48.426;10.868;2024-03-23T05:49:38;4.57;;;2.63;;
16832;SDS011;8533;48.426;10.868;2024-03-23T05:52:03;2.50;;;2.07;;
16832;SDS011;8533;48.426;10.868;2024-03-23T05:54:29;3.80;;;2.40;;
16832;SDS011;8533;48.426;10.868;2024-03-23T05:56:55;3.20;;;2.40;;
16832;SDS011;8533;48.426;10.868;2024-03-23T05:59:20;2.33;;;2.10;;
16832;SDS011;8533;48.426;10.868;2024-03-23T06:01:46;4.60;;;2.20;;
16832;SDS011;8533;48.426;10.868;2024-03-23T06:04:12;2.93;;;2.17;;
16832;SDS011;8533;48.426;10.868;2024-03-23T06:06:38;3.57;;;2.57;;
16832;SDS011;8533;48.426;10.868;2024-03-23T06:09:04;8.07;;;2.47;;
16832;SDS011;8533;48.426;10.868;2024-03-23T06:11:29;3.17;;;2.40;;
16832;SDS011;8533;48.426;10.868;2024-03-23T06:13:55;2.47;;;2.27;;
16832;SDS011;8533;48.426;10.868;2024-03-23T06:16:21;2.83;;;2.40;;
16832;SDS011;8533;48.426;10.868;2024-03-23T06:18:49;2.73;;;2.30;;
16832;SDS011;8533;48.426;10.868;2024-03-23T06:21:15;3.53;;;2.03;;
16832;SDS011;8533;48.426;10.868;2024-03-23T06:23:41;4.07;;;2.43;;
16832;SDS011;8533;48.426;10.868;2024-03-23T06:26:06;2.77;;;2.20;;
16832;SDS011;8533;48.426;10.868;2024-03-23T06:28:32;1.97;;;1.87;;
16832;SDS011;8533;48.426;10.868;2024-03-23T06:30:57;2.27;;;2.00;;
16832;SDS011;8533;48.426;10.868;2024-03-23T06:33:22;6.03;;;2.13;;
16832;SDS011;8533;48.426;10.868;2024-03-23T06:35:51;2.33;;;1.93;;
16832;SDS011;8533;48.426;10.868;2024-03-23T06:38:17;2.00;;;1.80;;
16832;SDS011;8533;48.426;10.868;2024-03-23T06:40:43;2.23;;;2.03;;
16832;SDS011;8533;48.426;10.868;2024-03-23T06:43:12;4.93;;;2.40;;
16832;SDS011;8533;48.426;10.868;2024-03-23T06:45:40;6.10;;;2.07;;
16832;SDS011;8533;48.426;10.868;2024-03-23T06:48:06;3.53;;;2.13;;
16832;SDS011;8533;48.426;10.868;2024-03-23T06:50:33;4.90;;;2.43;;
16832;SDS011;8533;48.426;10.868;2024-03-23T06:52:58;2.10;;;1.97;;
16832;SDS011;8533;48.426;10.868;2024-03-23T06:55:24;3.40;;;2.60;;
16832;SDS011;8533;48.426;10.868;2024-03-23T06:57:51;3.47;;;2.30;;
16832;SDS011;8533;48.426;10.868;2024-03-23T07:00:17;2.90;;;2.07;;
16832;SDS011;8533;48.426;10.868;2024-03-23T07:02:42;3.33;;;2.30;;
16832;SDS011;8533;48.426;10.868;2024-03-23T07:05:09;4.33;;;2.47;;
16832;SDS011;8533;48.426;10.868;2024-03-23T07:07:34;5.30;;;2.60;;
16832;SDS011;8533;48.426;10.868;2024-03-23T07:10:00;3.73;;;2.40;;
16832;SDS011;8533;48.426;10.868;2024-03-23T07:12:25;3.60;;;2.50;;
16832;SDS011;8533;48.426;10.868;2024-03-23T07:14:50;5.20;;;2.50;;
16832;SDS011;8533;48.426;10.868;2024-03-23T07:17:15;4.10;;;2.57;;
16832;SDS011;8533;48.426;10.868;2024-03-23T07:19:43;7.17;;;3.67;;
16832;SDS011;8533;48.426;10.868;2024-03-23T07:22:08;8.50;;;3.80;;
16832;SDS011;8533;48.426;10.868;2024-03-23T07:24:34;7.23;;;3.70;;
16832;SDS011;8533;48.426;10.868;2024-03-23T07:26:59;4.70;;;3.43;;
16832;SDS011;8533;48.426;10.868;2024-03-23T07:29:24;5.50;;;3.97;;
16832;SDS011;8533;48.426;10.868;2024-03-23T07:31:50;6.80;;;3.60;;
16832;SDS011;8533;48.426;10.868;2024-03-23T07:34:15;7.00;;;3.43;;
16832;SDS011;8533;48.426;10.868;2024-03-23T07:36:40;8.00;;;3.73;;
16832;SDS011;8533;48.426;10.868;2024-03-23T07:39:06;6.47;;;3.23;;
16832;SDS011;8533;48.426;10.868;2024-03-23T07:41:33;6.13;;;3.30;;
16832;SDS011;8533;48.426;10.868;2024-03-23T07:43:58;4.53;;;3.00;;
16832;SDS011;8533;48.426;10.868;2024-03-23T07:46:23;4.30;;;3.33;;
16832;SDS011;8533;48.426;10.868;2024-03-23T07:48:50;6.73;;;3.23;;
16832;SDS011;8533;48.426;10.868;2024-03-23T07:51:16;6.43;;;3.10;;
16832;SDS011;8533;48.426;10.868;2024-03-23T07:53:48;7.23;;;3.20;;
16832;SDS011;8533;48.426;10.868;2024-03-23T07:56:14;6.07;;;3.10;;
16832;SDS011;8533;48.426;10.868;2024-03-23T07:58:40;6.37;;;3.40;;
16832;SDS011;8533;48.426;10.868;2024-03-23T08:01:06;8.47;;;3.40;;
16832;SDS011;8533;48.426;10.868;2024-03-23T08:03:36;6.43;;;3.43;;
16832;SDS011;8533;48.426;10.868;2024-03-23T08:08:39;5.40;;;3.57;;
16832;SDS011;8533;48.426;10.868;2024-03-23T08:11:05;5.50;;;3.70;;
16832;SDS011;8533;48.426;10.868;2024-03-23T08:13:31;6.27;;;3.20;;
16832;SDS011;8533;48.426;10.868;2024-03-23T08:15:57;5.13;;;3.27;;
16832;SDS011;8533;48.426;10.868;2024-03-23T08:18:24;6.43;;;3.60;;
16832;SDS011;8533;48.426;10.868;2024-03-23T08:20:59;8.03;;;3.70;;
16832;SDS011;8533;48.426;10.868;2024-03-23T08:23:25;6.37;;;3.10;;
16832;SDS011;8533;48.426;10.868;2024-03-23T08:25:52;5.70;;;3.10;;
16832;SDS011;8533;48.426;10.868;2024-03-23T08:28:22;4.93;;;2.87;;
16832;SDS011;8533;48.426;10.868;2024-03-23T08:30:47;6.37;;;3.10;;
16832;SDS011;8533;48.426;10.868;2024-03-23T08:33:12;5.13;;;3.30;;
16832;SDS011;8533;48.426;10.868;2024-03-23T08:35:38;4.60;;;3.20;;
16832;SDS011;8533;48.426;10.868;2024-03-23T08:38:03;6.27;;;3.10;;
16832;SDS011;8533;48.426;10.868;2024-03-23T08:40:29;4.03;;;2.73;;
16832;SDS011;8533;48.426;10.868;2024-03-23T08:42:54;3.90;;;2.50;;
16832;SDS011;8533;48.426;10.868;2024-03-23T08:45:19;2.87;;;1.97;;
16832;SDS011;8533;48.426;10.868;2024-03-23T08:47:44;3.13;;;1.70;;
16832;SDS011;8533;48.426;10.868;2024-03-23T08:50:10;1.53;;;1.40;;
16832;SDS011;8533;48.426;10.868;2024-03-23T08:52:35;1.20;;;1.10;;
16832;SDS011;8533;48.426;10.868;2024-03-23T08:55:00;2.10;;;0.80;;
16832;SDS011;8533;48.426;10.868;2024-03-23T08:57:26;1.30;;;0.80;;
16832;SDS011;8533;48.426;10.868;2024-03-23T08:59:51;0.70;;;0.70;;
16832;SDS011;8533;48.426;10.868;2024-03-23T09:02:17;0.73;;;0.73;;
16832;SDS011;8533;48.426;10.868;2024-03-23T09:04:42;0.87;;;0.80;;
16832;SDS011;8533;48.426;10.868;2024-03-23T09:07:08;0.43;;;0.43;;
16832;SDS011;8533;48.426;10.868;2024-03-23T09:09:34;0.60;;;0.60;;
16832;SDS011;8533;48.426;10.868;2024-03-23T09:11:59;0.43;;;0.43;;
16832;SDS011;8533;48.426;10.868;2024-03-23T09:14:24;0.70;;;0.70;;
16832;SDS011;8533;48.426;10.868;2024-03-23T09:16:50;0.67;;;0.67;;
16832;SDS011;8533;48.426;10.868;2024-03-23T09:19:16;0.40;;;0.40;;
16832;SDS011;8533;48.426;10.868;2024-03-23T09:21:42;0.90;;;0.90;;
16832;SDS011;8533;48.426;10.868;2024-03-23T09:24:08;0.50;;;0.50;;
16832;SDS011;8533;48.426;10.868;2024-03-23T09:26:33;0.70;;;0.70;;
16832;SDS011;8533;48.426;10.868;2024-03-23T09:28:58;0.53;;;0.53;;
16832;SDS011;8533;48.426;10.868;2024-03-23T09:31:24;0.67;;;0.67;;
16832;SDS011;8533;48.426;10.868;2024-03-23T09:33:49;0.57;;;0.57;;
16832;SDS011;8533;48.426;10.868;2024-03-23T09:36:15;0.57;;;0.57;;
16832;SDS011;8533;48.426;10.868;2024-03-23T09:38:41;0.60;;;0.60;;
16832;SDS011;8533;48.426;10.868;2024-03-23T09:41:09;0.87;;;0.70;;
16832;SDS011;8533;48.426;10.868;2024-03-23T09:43:35;0.73;;;0.73;;
16832;SDS011;8533;48.426;10.868;2024-03-23T09:46:03;1.03;;;0.70;;
16832;SDS011;8533;48.426;10.868;2024-03-23T09:48:30;0.50;;;0.50;;
16832;SDS011;8533;48.426;10.868;2024-03-23T09:50:56;0.83;;;0.80;;
16832;SDS011;8533;48.426;10.868;2024-03-23T09:53:21;0.60;;;0.60;;
16832;SDS011;8533;48.426;10.868;2024-03-23T09:55:47;0.40;;;0.40;;
16832;SDS011;8533;48.426;10.868;2024-03-23T09:58:14;1.50;;;0.40;;
16832;SDS011;8533;48.426;10.868;2024-03-23T10:00:41;0.37;;;0.37;;
16832;SDS011;8533;48.426;10.868;2024-03-23T10:03:06;0.30;;;0.30;;
16832;SDS011;8533;48.426;10.868;2024-03-23T10:05:32;0.37;;;0.37;;
16832;SDS011;8533;48.426;10.868;2024-03-23T10:10:38;0.73;;;0.47;;
16832;SDS011;8533;48.426;10.868;2024-03-23T10:13:03;0.60;;;0.60;;
16832;SDS011;8533;48.426;10.868;2024-03-23T10:15:29;1.00;;;1.00;;
16832;SDS011;8533;48.426;10.868;2024-03-23T10:17:54;0.70;;;0.70;;
16832;SDS011;8533;48.426;10.868;2024-03-23T10:20:20;0.70;;;0.70;;
16832;SDS011;8533;48.426;10.868;2024-03-23T10:22:47;0.80;;;0.80;;
16832;SDS011;8533;48.426;10.868;2024-03-23T10:25:13;0.90;;;0.90;;
16832;SDS011;8533;48.426;10.868;2024-03-23T10:27:39;1.37;;;0.90;;
16832;SDS011;8533;48.426;10.868;2024-03-23T10:30:11;1.13;;;1.03;;
16832;SDS011;8533;48.426;10.868;2024-03-23T10:32:39;1.00;;;1.00;;
16832;SDS011;8533;48.426;10.868;2024-03-23T10:35:17;0.80;;;0.80;;
16832;SDS011;8533;48.426;10.868;2024-03-23T10:37:44;1.03;;;1.00;;
16832;SDS011;8533;48.426;10.868;2024-03-23T10:40:10;0.90;;;0.90;;
16832;SDS011;8533;48.426;10.868;2024-03-23T10:42:37;1.07;;;1.07;;
16832;SDS011;8533;48.426;10.868;2024-03-23T10:45:06;1.23;;;1.07;;
16832;SDS011;8533;48.426;10.868;2024-03-23T10:47:33;1.20;;;1.20;;
16832;SDS011;8533;48.426;10.868;2024-03-23T10:50:00;1.90;;;1.20;;
16832;SDS011;8533;48.426;10.868;2024-03-23T10:52:25;0.77;;;0.77;;
16832;SDS011;8533;48.426;10.868;2024-03-23T10:54:51;2.43;;;0.97;;
16832;SDS011;8533;48.426;10.868;2024-03-23T10:57:17;1.37;;;1.10;;
16832;SDS011;8533;48.426;10.868;2024-03-23T10:59:45;1.50;;;1.40;;
16832;SDS011;8533;48.426;10.868;2024-03-23T11:02:20;2.63;;;1.40;;
16832;SDS011;8533;48.426;10.868;2024-03-23T11:04:46;2.80;;;1.33;;
16832;SDS011;8533;48.426;10.868;2024-03-23T11:07:31;3.10;;;1.30;;
16832;SDS011;8533;48.426;10.868;2024-03-23T11:09:57;1.73;;;1.30;;
16832;SDS011;8533;48.426;10.868;2024-03-23T11:17:19;1.70;;;1.60;;
16832;SDS011;8533;48.426;10.868;2024-03-23T11:19:46;2.07;;;1.50;;
16832;SDS011;8533;48.426;10.868;2024-03-23T11:23:04;2.90;;;1.70;;
16832;SDS011;8533;48.426;10.868;2024-03-23T11:27:46;4.30;;;2.17;;
16832;SDS011;8533;48.426;10.868;2024-03-23T11:32:42;3.70;;;2.20;;
16832;SDS011;8533;48.426;10.868;2024-03-23T11:35:08;2.20;;;1.57;;
16832;SDS011;8533;48.426;10.868;2024-03-23T11:37:35;2.57;;;1.90;;
16832;SDS011;8533;48.426;10.868;2024-03-23T11:40:05;4.00;;;1.83;;
16832;SDS011;8533;48.426;10.868;2024-03-23T11:42:41;4.00;;;1.97;;
16832;SDS011;8533;48.426;10.868;2024-03-23T11:45:08;2.63;;;2.03;;
16832;SDS011;8533;48.426;10.868;2024-03-23T11:47:34;3.67;;;2.20;;
16832;SDS011;8533;48.426;10.868;2024-03-23T11:49:59;6.47;;;2.10;;
16832;SDS011;8533;48.426;10.868;2024-03-23T11:52:24;2.40;;;1.97;;
16832;SDS011;8533;48.426;10.868;2024-03-23T11:54:49;2.47;;;1.90;;
16832;SDS011;8533;48.426;10.868;2024-03-23T11:57:15;4.67;;;1.80;;
16832;SDS011;8533;48.426;10.868;2024-03-23T11:59:40;5.27;;;2.20;;
16832;SDS011;8533;48.426;10.868;2024-03-23T12:02:12;2.33;;;1.70;;
16832;SDS011;8533;48.426;10.868;2024-03-23T12:04:41;2.50;;;2.00;;
16832;SDS011;8533;48.426;10.868;2024-03-23T12:09:35;3.50;;;1.70;;
16832;SDS011;8533;48.426;10.868;2024-03-23T12:14:42;2.93;;;2.07;;
16832;SDS011;8533;48.426;10.868;2024-03-23T12:17:14;4.23;;;2.00;;
16832;SDS011;8533;48.426;10.868;2024-03-23T12:19:40;3.87;;;2.50;;
16832;SDS011;8533;48.426;10.868;2024-03-23T12:22:07;4.30;;;2.10;;
16832;SDS011;8533;48.426;10.868;2024-03-23T12:24:33;3.17;;;2.10;;
16832;SDS011;8533;48.426;10.868;2024-03-23T12:27:00;5.63;;;2.23;;
16832;SDS011;8533;48.426;10.868;2024-03-23T12:29:32;4.60;;;2.17;;
16832;SDS011;8533;48.426;10.868;2024-03-23T12:32:01;3.37;;;1.80;;
16832;SDS011;8533;48.426;10.868;2024-03-23T12:34:27;4.60;;;2.10;;
16832;SDS011;8533;48.426;10.868;2024-03-23T12:36:53;4.97;;;2.07;;
16832;SDS011;8533;48.426;10.868;2024-03-23T12:39:19;2.23;;;2.00;;
16832;SDS011;8533;48.426;10.868;2024-03-23T12:41:47;3.27;;;2.07;;
16832;SDS011;8533;48.426;10.868;2024-03-23T12:44:14;3.80;;;2.20;;
16832;SDS011;8533;48.426;10.868;2024-03-23T12:46:40;4.07;;;2.23;;
16832;SDS011;8533;48.426;10.868;2024-03-23T12:49:06;5.63;;;2.07;;
16832;SDS011;8533;48.426;10.868;2024-03-23T12:51:32;3.17;;;2.00;;
16832;SDS011;8533;48.426;10.868;2024-03-23T12:53:57;4.63;;;2.17;;
16832;SDS011;8533;48.426;10.868;2024-03-23T12:56:23;5.00;;;2.20;;
16832;SDS011;8533;48.426;10.868;2024-03-23T12:58:48;3.50;;;2.47;;
16832;SDS011;8533;48.426;10.868;2024-03-23T13:01:16;4.17;;;2.17;;
16832;SDS011;8533;48.426;10.868;2024-03-23T13:03:42;7.87;;;2.30;;
16832;SDS011;8533;48.426;10.868;2024-03-23T13:06:09;4.77;;;2.70;;
16832;SDS011;8533;48.426;10.868;2024-03-23T13:08:34;3.70;;;2.17;;
16832;SDS011;8533;48.426;10.868;2024-03-23T13:11:00;3.87;;;1.90;;
16832;SDS011;8533;48.426;10.868;2024-03-23T13:13:25;4.40;;;1.73;;
16832;SDS011;8533;48.426;10.868;2024-03-23T13:15:50;1.93;;;1.63;;
16832;SDS011;8533;48.426;10.868;2024-03-23T13:18:16;2.57;;;1.50;;
16832;SDS011;8533;48.426;10.868;2024-03-23T13:20:41;3.37;;;1.37;;
16832;SDS011;8533;48.426;10.868;2024-03-23T13:23:07;1.17;;;1.07;;
16832;SDS011;8533;48.426;10.868;2024-03-23T13:25:32;2.07;;;1.83;;
16832;SDS011;8533;48.426;10.868;2024-03-23T13:27:58;1.80;;;1.67;;
16832;SDS011;8533;48.426;10.868;2024-03-23T13:30:23;2.03;;;1.17;;
16832;SDS011;8533;48.426;10.868;2024-03-23T13:32:49;1.53;;;0.90;;
16832;SDS011;8533;48.426;10.868;2024-03-23T13:35:15;3.13;;;1.47;;
16832;SDS011;8533;48.426;10.868;2024-03-23T13:37:40;1.83;;;1.27;;
16832;SDS011;8533;48.426;10.868;2024-03-23T13:40:06;1.30;;;1.20;;
16832;SDS011;8533;48.426;10.868;2024-03-23T13:42:32;1.37;;;1.10;;
16832;SDS011;8533;48.426;10.868;2024-03-23T13:44:57;3.43;;;1.30;;
16832;SDS011;8533;48.426;10.868;2024-03-23T13:47:23;3.43;;;1.33;;
16832;SDS011;8533;48.426;10.868;2024-03-23T13:49:48;2.67;;;0.97;;
16832;SDS011;8533;48.426;10.868;2024-03-23T13:52:14;3.80;;;1.50;;
16832;SDS011;8533;48.426;10.868;2024-03-23T13:54:39;2.13;;;1.20;;
16832;SDS011;8533;48.426;10.868;2024-03-23T13:57:10;3.80;;;1.40;;
16832;SDS011;8533;48.426;10.868;2024-03-23T13:59:35;5.73;;;1.47;;
16832;SDS011;8533;48.426;10.868;2024-03-23T14:02:01;3.67;;;1.20;;
16832;SDS011;8533;48.426;10.868;2024-03-23T14:04:26;3.90;;;1.40;;
16832;SDS011;8533;48.426;10.868;2024-03-23T14:06:51;1.60;;;1.40;;
16832;SDS011;8533;48.426;10.868;2024-03-23T14:09:16;5.83;;;1.80;;
16832;SDS011;8533;48.426;10.868;2024-03-23T14:11:46;0.93;;;0.90;;
16832;SDS011;8533;48.426;10.868;2024-03-23T14:14:12;4.00;;;1.53;;
16832;SDS011;8533;48.426;10.868;2024-03-23T14:16:37;2.10;;;1.67;;
16832;SDS011;8533;48.426;10.868;2024-03-23T14:19:03;1.83;;;1.33;;
16832;SDS011;8533;48.426;10.868;2024-03-23T14:21:30;1.60;;;1.40;;
16832;SDS011;8533;48.426;10.868;2024-03-23T14:23:55;1.67;;;1.30;;
16832;SDS011;8533;48.426;10.868;2024-03-23T14:26:21;1.43;;;1.03;;
16832;SDS011;8533;48.426;10.868;2024-03-23T14:28:46;1.90;;;1.50;;
16832;SDS011;8533;48.426;10.868;2024-03-23T14:31:11;3.13;;;1.30;;
16832;SDS011;8533;48.426;10.868;2024-03-23T14:33:37;5.60;;;1.53;;
16832;SDS011;8533;48.426;10.868;2024-03-23T14:36:03;1.97;;;1.23;;
16832;SDS011;8533;48.426;10.868;2024-03-23T14:38:29;3.10;;;1.30;;
16832;SDS011;8533;48.426;10.868;2024-03-23T14:41:04;1.37;;;1.27;;
16832;SDS011;8533;48.426;10.868;2024-03-23T14:43:29;2.50;;;1.27;;
16832;SDS011;8533;48.426;10.868;2024-03-23T14:46:28;7.60;;;1.70;;
16832;SDS011;8533;48.426;10.868;2024-03-23T14:48:46;4.33;;;1.40;;
16832;SDS011;8533;48.426;10.868;2024-03-23T14:51:11;3.37;;;1.50;;
16832;SDS011;8533;48.426;10.868;2024-03-23T14:53:38;3.83;;;1.67;;
16832;SDS011;8533;48.426;10.868;2024-03-23T14:56:05;6.33;;;2.20;;
16832;SDS011;8533;48.426;10.868;2024-03-23T14:58:31;4.47;;;2.10;;
16832;SDS011;8533;48.426;10.868;2024-03-23T15:01:00;2.97;;;1.60;;
16832;SDS011;8533;48.426;10.868;2024-03-23T15:03:29;2.97;;;1.73;;
16832;SDS011;8533;48.426;10.868;2024-03-23T15:05:55;6.50;;;2.03;;
16832;SDS011;8533;48.426;10.868;2024-03-23T15:08:21;2.77;;;2.00;;
16832;SDS011;8533;48.426;10.868;2024-03-23T15:10:46;3.73;;;1.77;;
16832;SDS011;8533;48.426;10.868;2024-03-23T15:13:12;5.23;;;2.33;;
16832;SDS011;8533;48.426;10.868;2024-03-23T15:15:38;3.53;;;1.83;;
16832;SDS011;8533;48.426;10.868;2024-03-23T15:18:05;3.87;;;1.80;;
16832;SDS011;8533;48.426;10.868;2024-03-23T15:20:31;7.50;;;2.03;;
16832;SDS011;8533;48.426;10.868;2024-03-23T15:22:58;2.43;;;1.60;;
16832;SDS011;8533;48.426;10.868;2024-03-23T15:25:24;3.37;;;1.97;;
16832;SDS011;8533;48.426;10.868;2024-03-23T15:27:49;2.97;;;1.77;;
16832;SDS011;8533;48.426;10.868;2024-03-23T15:30:14;5.07;;;1.90;;
16832;SDS011;8533;48.426;10.868;2024-03-23T15:32:39;3.10;;;1.90;;
16832;SDS011;8533;48.426;10.868;2024-03-23T15:35:05;4.43;;;1.60;;
16832;SDS011;8533;48.426;10.868;2024-03-23T15:37:32;3.30;;;1.83;;
16832;SDS011;8533;48.426;10.868;2024-03-23T15:39:59;4.23;;;1.60;;
16832;SDS011;8533;48.426;10.868;2024-03-23T15:42:24;2.00;;;1.70;;
16832;SDS011;8533;48.426;10.868;2024-03-23T15:44:50;3.13;;;1.33;;
16832;SDS011;8533;48.426;10.868;2024-03-23T15:47:15;2.43;;;1.40;;
16832;SDS011;8533;48.426;10.868;2024-03-23T15:49:40;4.43;;;1.57;;
16832;SDS011;8533;48.426;10.868;2024-03-23T15:52:07;1.43;;;1.30;;
16832;SDS011;8533;48.426;10.868;2024-03-23T15:54:33;1.87;;;1.20;;
16832;SDS011;8533;48.426;10.868;2024-03-23T15:56:58;4.03;;;1.40;;